sensor_id;sensor_type;location;lat;lon;timestamp;pressure;altitude;pressure_sealevel;temperature;humidity
76808;BME280;65758;45.458;11.062;2024-01-10T00:00:15;102119.60;;;4.72;64.63
76808;BME280;65758;45.458;11.062;2024-01-10T00:02:42;102118.96;;;4.75;64.76
76808;BME280;65758;45.458;11.062;2024-01-10T00:05:09;102120.13;;;4.76;64.63
76808;BME280;65758;45.458;11.062;2024-01-10T00:07:35;102120.33;;;4.77;64.81
76808;BME280;65758;45.458;11.062;2024-01-10T00:10:04;102116.40;;;4.79;64.77
76808;BME280;65758;45.458;11.062;2024-01-10T00:12:31;102116.12;;;4.81;65.01
76808;BME280;65758;45.458;11.062;2024-01-10T00:15:04;102113.73;;;4.82;64.52
76808;BME280;65758;45.458;11.062;2024-01-10T00:17:31;102118.41;;;4.80;64.49
76808;BME280;65758;45.458;11.062;2024-01-10T00:19:59;102120.63;;;4.78;64.59
76808;BME280;65758;45.458;11.062;2024-01-10T00:22:26;102116.73;;;4.75;64.54
76808;BME280;65758;45.458;11.062;2024-01-10T00:24:52;102113.64;;;4.74;64.58
76808;BME280;65758;45.458;11.062;2024-01-10T00:27:19;102105.95;;;4.71;64.59
76808;BME280;65758;45.458;11.062;2024-01-10T00:29:46;102109.68;;;4.70;64.75
76808;BME280;65758;45.458;11.062;2024-01-10T00:32:13;102104.90;;;4.68;64.69
76808;BME280;65758;45.458;11.062;2024-01-10T00:34:39;102105.38;;;4.65;64.90
76808;BME280;65758;45.458;11.062;2024-01-10T00:37:06;102102.61;;;4.62;64.93
76808;BME280;65758;45.458;11.062;2024-01-10T00:39:33;102109.80;;;4.59;65.19
76808;BME280;65758;45.458;11.062;2024-01-10T00:42:00;102110.14;;;4.53;64.93
76808;BME280;65758;45.458;11.062;2024-01-10T00:44:26;102103.95;;;4.47;64.86
76808;BME280;65758;45.458;11.062;2024-01-10T00:46:53;102102.55;;;4.39;65.12
76808;BME280;65758;45.458;11.062;2024-01-10T00:49:20;102103.52;;;4.35;65.25
76808;BME280;65758;45.458;11.062;2024-01-10T00:51:47;102107.00;;;4.33;65.26
76808;BME280;65758;45.458;11.062;2024-01-10T00:54:14;102111.84;;;4.33;65.50
76808;BME280;65758;45.458;11.062;2024-01-10T00:56:41;102114.52;;;4.35;65.79
76808;BME280;65758;45.458;11.062;2024-01-10T00:59:07;102117.60;;;4.37;65.58
76808;BME280;65758;45.458;11.062;2024-01-10T01:01:34;102119.39;;;4.39;65.86
76808;BME280;65758;45.458;11.062;2024-01-10T01:04:01;102122.02;;;4.42;65.77
76808;BME280;65758;45.458;11.062;2024-01-10T01:06:28;102124.59;;;4.41;65.55
76808;BME280;65758;45.458;11.062;2024-01-10T01:08:55;102126.41;;;4.41;65.42
76808;BME280;65758;45.458;11.062;2024-01-10T01:11:23;102130.76;;;4.39;65.57
76808;BME280;65758;45.458;11.062;2024-01-10T01:13:50;102133.13;;;4.37;65.50
76808;BME280;65758;45.458;11.062;2024-01-10T01:16:17;102133.48;;;4.35;65.68
76808;BME280;65758;45.458;11.062;2024-01-10T01:18:43;102136.08;;;4.33;65.41
76808;BME280;65758;45.458;11.062;2024-01-10T01:21:12;102137.10;;;4.28;65.21
76808;BME280;65758;45.458;11.062;2024-01-10T01:23:39;102133.02;;;4.24;65.31
76808;BME280;65758;45.458;11.062;2024-01-10T01:26:08;102131.12;;;4.17;65.12
76808;BME280;65758;45.458;11.062;2024-01-10T01:28:35;102137.71;;;4.13;65.36
76808;BME280;65758;45.458;11.062;2024-01-10T01:31:02;102138.39;;;4.08;65.60
76808;BME280;65758;45.458;11.062;2024-01-10T01:33:29;102139.23;;;4.05;65.61
76808;BME280;65758;45.458;11.062;2024-01-10T01:35:56;102141.28;;;4.02;65.61
76808;BME280;65758;45.458;11.062;2024-01-10T01:38:23;102139.02;;;4.00;65.67
76808;BME280;65758;45.458;11.062;2024-01-10T01:40:50;102140.99;;;3.98;65.53
76808;BME280;65758;45.458;11.062;2024-01-10T01:43:24;102141.19;;;3.94;65.88
76808;BME280;65758;45.458;11.062;2024-01-10T01:45:55;102143.67;;;3.95;65.79
76808;BME280;65758;45.458;11.062;2024-01-10T01:48:23;102146.67;;;3.95;65.73
76808;BME280;65758;45.458;11.062;2024-01-10T01:50:55;102144.55;;;3.95;65.90
76808;BME280;65758;45.458;11.062;2024-01-10T01:53:24;102143.64;;;3.95;65.74
76808;BME280;65758;45.458;11.062;2024-01-10T01:55:51;102147.16;;;3.96;65.69
76808;BME280;65758;45.458;11.062;2024-01-10T01:58:19;102143.23;;;3.95;65.70
76808;BME280;65758;45.458;11.062;2024-01-10T02:00:47;102143.98;;;3.93;65.65
76808;BME280;65758;45.458;11.062;2024-01-10T02:03:14;102143.33;;;3.93;65.78
76808;BME280;65758;45.458;11.062;2024-01-10T02:05:41;102138.42;;;3.93;65.48
76808;BME280;65758;45.458;11.062;2024-01-10T02:08:08;102140.55;;;3.91;65.46
76808;BME280;65758;45.458;11.062;2024-01-10T02:10:35;102137.14;;;3.88;65.43
76808;BME280;65758;45.458;11.062;2024-01-10T02:13:02;102136.98;;;3.83;65.58
76808;BME280;65758;45.458;11.062;2024-01-10T02:15:29;102137.83;;;3.79;65.39
76808;BME280;65758;45.458;11.062;2024-01-10T02:17:56;102135.53;;;3.74;65.62
76808;BME280;65758;45.458;11.062;2024-01-10T02:20:23;102137.71;;;3.71;65.76
76808;BME280;65758;45.458;11.062;2024-01-10T02:22:50;102137.34;;;3.67;65.92
76808;BME280;65758;45.458;11.062;2024-01-10T02:25:18;102138.67;;;3.66;66.00
76808;BME280;65758;45.458;11.062;2024-01-10T02:27:45;102131.79;;;3.67;66.36
76808;BME280;65758;45.458;11.062;2024-01-10T02:30:12;102135.95;;;3.70;66.45
76808;BME280;65758;45.458;11.062;2024-01-10T02:32:39;102137.39;;;3.74;66.43
76808;BME280;65758;45.458;11.062;2024-01-10T02:35:07;102136.97;;;3.76;66.09
76808;BME280;65758;45.458;11.062;2024-01-10T02:37:35;102137.20;;;3.76;65.82
76808;BME280;65758;45.458;11.062;2024-01-10T02:40:02;102132.73;;;3.75;65.88
76808;BME280;65758;45.458;11.062;2024-01-10T02:42:29;102132.64;;;3.74;65.81
76808;BME280;65758;45.458;11.062;2024-01-10T02:44:56;102130.56;;;3.72;65.76
76808;BME280;65758;45.458;11.062;2024-01-10T02:47:23;102135.05;;;3.68;65.80
76808;BME280;65758;45.458;11.062;2024-01-10T02:49:50;102133.17;;;3.65;65.94
76808;BME280;65758;45.458;11.062;2024-01-10T02:52:17;102127.88;;;3.64;65.89
76808;BME280;65758;45.458;11.062;2024-01-10T02:54:46;102127.98;;;3.63;65.99
76808;BME280;65758;45.458;11.062;2024-01-10T02:57:13;102129.48;;;3.62;66.06
76808;BME280;65758;45.458;11.062;2024-01-10T02:59:40;102127.43;;;3.61;65.80
76808;BME280;65758;45.458;11.062;2024-01-10T03:02:07;102132.75;;;3.59;65.78
76808;BME280;65758;45.458;11.062;2024-01-10T03:04:34;102131.45;;;3.55;65.74
76808;BME280;65758;45.458;11.062;2024-01-10T03:07:01;102132.94;;;3.53;65.62
76808;BME280;65758;45.458;11.062;2024-01-10T03:09:27;102131.05;;;3.52;65.93
76808;BME280;65758;45.458;11.062;2024-01-10T03:11:54;102138.58;;;3.51;65.89
76808;BME280;65758;45.458;11.062;2024-01-10T03:14:21;102141.89;;;3.52;65.98
76808;BME280;65758;45.458;11.062;2024-01-10T03:16:49;102137.58;;;3.54;66.04
76808;BME280;65758;45.458;11.062;2024-01-10T03:19:16;102137.00;;;3.54;66.31
76808;BME280;65758;45.458;11.062;2024-01-10T03:21:43;102139.62;;;3.56;66.39
76808;BME280;65758;45.458;11.062;2024-01-10T03:24:10;102135.88;;;3.60;66.13
76808;BME280;65758;45.458;11.062;2024-01-10T03:26:37;102138.17;;;3.62;66.29
76808;BME280;65758;45.458;11.062;2024-01-10T03:29:03;102140.23;;;3.65;66.05
76808;BME280;65758;45.458;11.062;2024-01-10T03:31:31;102139.95;;;3.66;66.11
76808;BME280;65758;45.458;11.062;2024-01-10T03:33:58;102140.17;;;3.65;66.17
76808;BME280;65758;45.458;11.062;2024-01-10T03:36:25;102143.85;;;3.65;66.23
76808;BME280;65758;45.458;11.062;2024-01-10T03:38:52;102141.05;;;3.64;66.08
76808;BME280;65758;45.458;11.062;2024-01-10T03:41:20;102140.31;;;3.63;66.11
76808;BME280;65758;45.458;11.062;2024-01-10T03:43:47;102134.92;;;3.62;66.40
76808;BME280;65758;45.458;11.062;2024-01-10T03:46:15;102136.81;;;3.63;66.52
76808;BME280;65758;45.458;11.062;2024-01-10T03:48:43;102129.29;;;3.63;66.31
76808;BME280;65758;45.458;11.062;2024-01-10T03:51:18;102131.17;;;3.60;66.15
76808;BME280;65758;45.458;11.062;2024-01-10T03:53:45;102134.55;;;3.55;66.24
76808;BME280;65758;45.458;11.062;2024-01-10T03:56:12;102134.36;;;3.49;66.10
76808;BME280;65758;45.458;11.062;2024-01-10T03:58:40;102131.34;;;3.43;66.13
76808;BME280;65758;45.458;11.062;2024-01-10T04:01:08;102129.02;;;3.37;66.44
76808;BME280;65758;45.458;11.062;2024-01-10T04:03:35;102127.51;;;3.32;66.60
76808;BME280;65758;45.458;11.062;2024-01-10T04:06:03;102127.27;;;3.29;66.62
76808;BME280;65758;45.458;11.062;2024-01-10T04:08:30;102128.45;;;3.28;66.96
76808;BME280;65758;45.458;11.062;2024-01-10T04:10:57;102132.73;;;3.31;67.05
76808;BME280;65758;45.458;11.062;2024-01-10T04:13:24;102136.74;;;3.32;67.01
76808;BME280;65758;45.458;11.062;2024-01-10T04:15:52;102133.29;;;3.34;67.13
76808;BME280;65758;45.458;11.062;2024-01-10T04:18:19;102133.30;;;3.36;67.19
76808;BME280;65758;45.458;11.062;2024-01-10T04:20:49;102131.67;;;3.38;67.03
76808;BME280;65758;45.458;11.062;2024-01-10T04:23:16;102127.16;;;3.38;66.93
76808;BME280;65758;45.458;11.062;2024-01-10T04:25:43;102127.24;;;3.39;66.91
76808;BME280;65758;45.458;11.062;2024-01-10T04:28:10;102132.88;;;3.41;66.84
76808;BME280;65758;45.458;11.062;2024-01-10T04:30:36;102134.11;;;3.41;66.73
76808;BME280;65758;45.458;11.062;2024-01-10T04:33:03;102133.86;;;3.40;66.73
76808;BME280;65758;45.458;11.062;2024-01-10T04:35:30;102137.46;;;3.40;66.82
76808;BME280;65758;45.458;11.062;2024-01-10T04:37:58;102142.80;;;3.41;66.76
76808;BME280;65758;45.458;11.062;2024-01-10T04:40:24;102141.28;;;3.41;66.93
76808;BME280;65758;45.458;11.062;2024-01-10T04:42:51;102139.73;;;3.43;66.91
76808;BME280;65758;45.458;11.062;2024-01-10T04:45:18;102142.34;;;3.42;67.11
76808;BME280;65758;45.458;11.062;2024-01-10T04:47:45;102139.21;;;3.46;66.95
76808;BME280;65758;45.458;11.062;2024-01-10T04:50:12;102143.39;;;3.51;67.40
76808;BME280;65758;45.458;11.062;2024-01-10T04:52:40;102143.86;;;3.52;67.23
76808;BME280;65758;45.458;11.062;2024-01-10T04:55:07;102139.85;;;3.54;67.36
76808;BME280;65758;45.458;11.062;2024-01-10T04:57:35;102140.60;;;3.56;67.12
76808;BME280;65758;45.458;11.062;2024-01-10T05:00:02;102141.98;;;3.56;67.14
76808;BME280;65758;45.458;11.062;2024-01-10T05:02:30;102140.80;;;3.57;67.26
76808;BME280;65758;45.458;11.062;2024-01-10T05:04:58;102141.20;;;3.57;67.28
76808;BME280;65758;45.458;11.062;2024-01-10T05:07:25;102143.40;;;3.57;66.95
76808;BME280;65758;45.458;11.062;2024-01-10T05:09:52;102147.49;;;3.57;67.05
76808;BME280;65758;45.458;11.062;2024-01-10T05:12:18;102145.08;;;3.58;66.98
76808;BME280;65758;45.458;11.062;2024-01-10T05:14:45;102146.21;;;3.59;66.76
76808;BME280;65758;45.458;11.062;2024-01-10T05:17:12;102143.17;;;3.59;67.05
76808;BME280;65758;45.458;11.062;2024-01-10T05:19:39;102147.11;;;3.61;67.15
76808;BME280;65758;45.458;11.062;2024-01-10T05:22:07;102144.81;;;3.61;67.19
76808;BME280;65758;45.458;11.062;2024-01-10T05:24:33;102147.15;;;3.61;66.97
76808;BME280;65758;45.458;11.062;2024-01-10T05:27:02;102151.52;;;3.60;66.91
76808;BME280;65758;45.458;11.062;2024-01-10T05:29:29;102157.19;;;3.58;66.81
76808;BME280;65758;45.458;11.062;2024-01-10T05:31:56;102157.63;;;3.55;66.87
76808;BME280;65758;45.458;11.062;2024-01-10T05:34:23;102153.75;;;3.50;66.83
76808;BME280;65758;45.458;11.062;2024-01-10T05:36:50;102156.24;;;3.45;67.20
76808;BME280;65758;45.458;11.062;2024-01-10T05:39:17;102159.55;;;3.42;67.21
76808;BME280;65758;45.458;11.062;2024-01-10T05:41:47;102158.42;;;3.41;67.65
76808;BME280;65758;45.458;11.062;2024-01-10T05:44:14;102161.36;;;3.41;67.84
76808;BME280;65758;45.458;11.062;2024-01-10T05:46:41;102160.19;;;3.43;67.96
76808;BME280;65758;45.458;11.062;2024-01-10T05:49:11;102159.33;;;3.45;67.40
76808;BME280;65758;45.458;11.062;2024-01-10T05:51:38;102160.17;;;3.46;67.34
76808;BME280;65758;45.458;11.062;2024-01-10T05:54:05;102160.06;;;3.45;67.23
76808;BME280;65758;45.458;11.062;2024-01-10T05:56:34;102162.44;;;3.45;67.22
76808;BME280;65758;45.458;11.062;2024-01-10T05:59:01;102164.36;;;3.45;67.21
76808;BME280;65758;45.458;11.062;2024-01-10T06:01:28;102165.58;;;3.45;67.29
76808;BME280;65758;45.458;11.062;2024-01-10T06:03:55;102164.93;;;3.47;67.29
76808;BME280;65758;45.458;11.062;2024-01-10T06:06:23;102168.15;;;3.49;67.19
76808;BME280;65758;45.458;11.062;2024-01-10T06:08:51;102171.50;;;3.50;66.87
76808;BME280;65758;45.458;11.062;2024-01-10T06:11:17;102175.89;;;3.51;66.94
76808;BME280;65758;45.458;11.062;2024-01-10T06:13:44;102176.41;;;3.51;66.86
76808;BME280;65758;45.458;11.062;2024-01-10T06:16:20;102176.56;;;3.53;66.83
76808;BME280;65758;45.458;11.062;2024-01-10T06:18:47;102175.39;;;3.54;66.68
76808;BME280;65758;45.458;11.062;2024-01-10T06:21:14;102179.48;;;3.55;66.82
76808;BME280;65758;45.458;11.062;2024-01-10T06:23:40;102179.33;;;3.54;66.62
76808;BME280;65758;45.458;11.062;2024-01-10T06:26:07;102177.65;;;3.51;66.78
76808;BME280;65758;45.458;11.062;2024-01-10T06:28:34;102183.81;;;3.47;66.64
76808;BME280;65758;45.458;11.062;2024-01-10T06:31:01;102184.25;;;3.43;66.61
76808;BME280;65758;45.458;11.062;2024-01-10T06:33:28;102181.27;;;3.36;66.65
76808;BME280;65758;45.458;11.062;2024-01-10T06:35:55;102178.26;;;3.32;66.86
76808;BME280;65758;45.458;11.062;2024-01-10T06:38:21;102182.52;;;3.29;66.91
76808;BME280;65758;45.458;11.062;2024-01-10T06:40:49;102184.36;;;3.28;66.91
76808;BME280;65758;45.458;11.062;2024-01-10T06:43:17;102183.02;;;3.25;67.32
76808;BME280;65758;45.458;11.062;2024-01-10T06:45:44;102186.11;;;3.23;67.32
76808;BME280;65758;45.458;11.062;2024-01-10T06:48:11;102191.87;;;3.23;67.25
76808;BME280;65758;45.458;11.062;2024-01-10T06:50:39;102189.71;;;3.21;67.28
76808;BME280;65758;45.458;11.062;2024-01-10T06:53:06;102192.59;;;3.19;67.37
76808;BME280;65758;45.458;11.062;2024-01-10T06:55:34;102201.02;;;3.18;67.40
76808;BME280;65758;45.458;11.062;2024-01-10T06:58:01;102201.21;;;3.18;67.46
76808;BME280;65758;45.458;11.062;2024-01-10T07:00:29;102204.27;;;3.16;67.46
76808;BME280;65758;45.458;11.062;2024-01-10T07:03:01;102203.13;;;3.15;67.47
76808;BME280;65758;45.458;11.062;2024-01-10T07:05:29;102204.77;;;3.14;67.41
76808;BME280;65758;45.458;11.062;2024-01-10T07:07:58;102208.34;;;3.13;67.41
76808;BME280;65758;45.458;11.062;2024-01-10T07:10:26;102209.70;;;3.12;67.31
76808;BME280;65758;45.458;11.062;2024-01-10T07:12:55;102213.65;;;3.10;67.38
76808;BME280;65758;45.458;11.062;2024-01-10T07:15:22;102215.87;;;3.06;67.47
76808;BME280;65758;45.458;11.062;2024-01-10T07:17:49;102222.27;;;3.01;67.60
76808;BME280;65758;45.458;11.062;2024-01-10T07:20:16;102224.87;;;2.98;67.93
76808;BME280;65758;45.458;11.062;2024-01-10T07:22:43;102228.52;;;3.00;68.07
76808;BME280;65758;45.458;11.062;2024-01-10T07:25:11;102226.80;;;3.01;67.79
76808;BME280;65758;45.458;11.062;2024-01-10T07:27:41;102234.75;;;3.05;68.01
76808;BME280;65758;45.458;11.062;2024-01-10T07:30:09;102237.98;;;3.10;68.08
76808;BME280;65758;45.458;11.062;2024-01-10T07:32:43;102242.77;;;3.15;68.07
76808;BME280;65758;45.458;11.062;2024-01-10T07:35:12;102247.76;;;3.19;68.14
76808;BME280;65758;45.458;11.062;2024-01-10T07:37:41;102247.09;;;3.21;67.99
76808;BME280;65758;45.458;11.062;2024-01-10T07:40:09;102255.38;;;3.21;67.66
76808;BME280;65758;45.458;11.062;2024-01-10T07:42:37;102252.59;;;3.16;67.98
76808;BME280;65758;45.458;11.062;2024-01-10T07:45:04;102255.16;;;3.14;67.73
76808;BME280;65758;45.458;11.062;2024-01-10T07:47:32;102257.27;;;3.08;67.83
76808;BME280;65758;45.458;11.062;2024-01-10T07:50:01;102258.11;;;3.05;67.94
76808;BME280;65758;45.458;11.062;2024-01-10T07:52:28;102259.10;;;3.04;68.13
76808;BME280;65758;45.458;11.062;2024-01-10T07:54:54;102266.42;;;3.05;68.19
76808;BME280;65758;45.458;11.062;2024-01-10T07:57:21;102272.55;;;3.07;68.33
76808;BME280;65758;45.458;11.062;2024-01-10T07:59:48;102274.30;;;3.10;68.02
76808;BME280;65758;45.458;11.062;2024-01-10T08:02:15;102275.61;;;3.13;68.34
76808;BME280;65758;45.458;11.062;2024-01-10T08:04:42;102281.76;;;3.18;68.14
76808;BME280;65758;45.458;11.062;2024-01-10T08:07:09;102279.95;;;3.24;68.24
76808;BME280;65758;45.458;11.062;2024-01-10T08:09:36;102285.45;;;3.31;68.05
76808;BME280;65758;45.458;11.062;2024-01-10T08:12:04;102283.73;;;3.36;68.04
76808;BME280;65758;45.458;11.062;2024-01-10T08:14:31;102288.17;;;3.43;67.98
76808;BME280;65758;45.458;11.062;2024-01-10T08:16:58;102292.33;;;3.48;68.15
76808;BME280;65758;45.458;11.062;2024-01-10T08:19:25;102289.59;;;3.52;67.98
76808;BME280;65758;45.458;11.062;2024-01-10T08:21:53;102292.64;;;3.56;67.72
76808;BME280;65758;45.458;11.062;2024-01-10T08:24:20;102295.12;;;3.59;67.56
76808;BME280;65758;45.458;11.062;2024-01-10T08:26:47;102297.59;;;3.61;67.75
76808;BME280;65758;45.458;11.062;2024-01-10T08:29:18;102300.55;;;3.64;67.73
76808;BME280;65758;45.458;11.062;2024-01-10T08:31:46;102300.55;;;3.68;67.55
76808;BME280;65758;45.458;11.062;2024-01-10T08:34:14;102302.17;;;3.72;67.62
76808;BME280;65758;45.458;11.062;2024-01-10T08:36:41;102309.70;;;3.76;67.50
76808;BME280;65758;45.458;11.062;2024-01-10T08:39:07;102308.60;;;3.80;67.66
76808;BME280;65758;45.458;11.062;2024-01-10T08:41:34;102306.79;;;3.82;67.90
76808;BME280;65758;45.458;11.062;2024-01-10T08:44:03;102308.26;;;3.85;68.01
76808;BME280;65758;45.458;11.062;2024-01-10T08:46:31;102311.05;;;3.89;67.79
76808;BME280;65758;45.458;11.062;2024-01-10T08:48:58;102318.30;;;3.92;67.76
76808;BME280;65758;45.458;11.062;2024-01-10T08:51:25;102323.02;;;3.94;67.74
76808;BME280;65758;45.458;11.062;2024-01-10T08:53:52;102319.07;;;3.97;67.69
76808;BME280;65758;45.458;11.062;2024-01-10T08:56:19;102322.46;;;4.02;67.70
76808;BME280;65758;45.458;11.062;2024-01-10T08:58:47;102325.80;;;4.08;67.68
76808;BME280;65758;45.458;11.062;2024-01-10T09:01:14;102321.32;;;4.13;67.33
76808;BME280;65758;45.458;11.062;2024-01-10T09:03:41;102322.05;;;4.17;67.18
76808;BME280;65758;45.458;11.062;2024-01-10T09:06:08;102326.83;;;4.20;67.33
76808;BME280;65758;45.458;11.062;2024-01-10T09:08:38;102323.30;;;4.21;67.12
76808;BME280;65758;45.458;11.062;2024-01-10T09:11:06;102326.61;;;4.20;66.98
76808;BME280;65758;45.458;11.062;2024-01-10T09:13:33;102321.53;;;4.20;66.61
76808;BME280;65758;45.458;11.062;2024-01-10T09:16:01;102323.06;;;4.23;66.34
76808;BME280;65758;45.458;11.062;2024-01-10T09:18:28;102321.08;;;4.27;66.38
76808;BME280;65758;45.458;11.062;2024-01-10T09:20:55;102325.59;;;4.29;65.94
76808;BME280;65758;45.458;11.062;2024-01-10T09:23:23;102319.92;;;4.29;65.68
76808;BME280;65758;45.458;11.062;2024-01-10T09:25:50;102323.89;;;4.31;65.69
76808;BME280;65758;45.458;11.062;2024-01-10T09:28:17;102328.75;;;4.35;65.44
76808;BME280;65758;45.458;11.062;2024-01-10T09:30:45;102328.45;;;4.39;65.53
76808;BME280;65758;45.458;11.062;2024-01-10T09:33:12;102332.30;;;4.42;64.93
76808;BME280;65758;45.458;11.062;2024-01-10T09:35:39;102331.19;;;4.44;64.26
76808;BME280;65758;45.458;11.062;2024-01-10T09:38:06;102335.08;;;4.46;64.46
76808;BME280;65758;45.458;11.062;2024-01-10T09:40:33;102338.82;;;4.49;64.50
76808;BME280;65758;45.458;11.062;2024-01-10T09:42:59;102333.16;;;4.51;64.22
76808;BME280;65758;45.458;11.062;2024-01-10T09:45:28;102338.86;;;4.54;63.84
76808;BME280;65758;45.458;11.062;2024-01-10T09:47:58;102336.92;;;4.57;63.81
76808;BME280;65758;45.458;11.062;2024-01-10T09:50:25;102334.66;;;4.60;63.91
76808;BME280;65758;45.458;11.062;2024-01-10T09:52:54;102337.42;;;4.63;63.87
76808;BME280;65758;45.458;11.062;2024-01-10T09:55:29;102337.30;;;4.66;63.50
76808;BME280;65758;45.458;11.062;2024-01-10T09:58:02;102334.98;;;4.69;63.10
76808;BME280;65758;45.458;11.062;2024-01-10T10:00:33;102330.03;;;4.72;63.06
76808;BME280;65758;45.458;11.062;2024-01-10T10:03:09;102331.83;;;4.76;63.19
76808;BME280;65758;45.458;11.062;2024-01-10T10:05:39;102329.84;;;4.79;62.69
76808;BME280;65758;45.458;11.062;2024-01-10T10:08:13;102328.40;;;4.81;61.39
76808;BME280;65758;45.458;11.062;2024-01-10T10:10:49;102325.95;;;4.82;61.43
76808;BME280;65758;45.458;11.062;2024-01-10T10:13:29;102323.16;;;4.83;60.60
76808;BME280;65758;45.458;11.062;2024-01-10T10:16:01;102320.12;;;4.83;59.76
76808;BME280;65758;45.458;11.062;2024-01-10T10:18:30;102319.36;;;4.85;60.03
76808;BME280;65758;45.458;11.062;2024-01-10T10:21:10;102317.56;;;4.89;60.03
76808;BME280;65758;45.458;11.062;2024-01-10T10:23:39;102316.29;;;4.92;59.84
76808;BME280;65758;45.458;11.062;2024-01-10T10:26:14;102314.16;;;4.96;59.10
76808;BME280;65758;45.458;11.062;2024-01-10T10:28:49;102315.30;;;5.00;58.48
76808;BME280;65758;45.458;11.062;2024-01-10T10:31:18;102311.39;;;5.05;58.59
76808;BME280;65758;45.458;11.062;2024-01-10T10:33:46;102310.84;;;5.10;57.79
76808;BME280;65758;45.458;11.062;2024-01-10T10:36:15;102303.83;;;5.17;57.06
76808;BME280;65758;45.458;11.062;2024-01-10T10:38:42;102300.89;;;5.25;56.93
76808;BME280;65758;45.458;11.062;2024-01-10T10:41:09;102301.92;;;5.32;57.01
76808;BME280;65758;45.458;11.062;2024-01-10T10:43:40;102305.03;;;5.41;55.93
76808;BME280;65758;45.458;11.062;2024-01-10T10:46:09;102299.95;;;5.46;55.21
76808;BME280;65758;45.458;11.062;2024-01-10T10:48:39;102301.48;;;5.53;54.96
76808;BME280;65758;45.458;11.062;2024-01-10T10:53:38;102302.82;;;5.64;55.17
76808;BME280;65758;45.458;11.062;2024-01-10T10:56:07;102298.11;;;5.71;54.79
76808;BME280;65758;45.458;11.062;2024-01-10T10:58:37;102296.73;;;5.77;54.68
76808;BME280;65758;45.458;11.062;2024-01-10T11:01:06;102298.00;;;5.85;54.79
76808;BME280;65758;45.458;11.062;2024-01-10T11:03:34;102294.23;;;5.92;54.36
76808;BME280;65758;45.458;11.062;2024-01-10T11:06:04;102290.88;;;5.98;54.46
76808;BME280;65758;45.458;11.062;2024-01-10T11:08:36;102289.48;;;6.01;54.08
76808;BME280;65758;45.458;11.062;2024-01-10T11:11:35;102288.73;;;6.02;53.94
76808;BME280;65758;45.458;11.062;2024-01-10T11:16:59;102286.20;;;6.08;52.95
76808;BME280;65758;45.458;11.062;2024-01-10T11:22:52;102279.84;;;6.16;53.33
76808;BME280;65758;45.458;11.062;2024-01-10T11:25:22;102270.41;;;6.21;53.23
76808;BME280;65758;45.458;11.062;2024-01-10T11:27:53;102271.84;;;6.27;52.88
76808;BME280;65758;45.458;11.062;2024-01-10T11:30:37;102266.73;;;6.31;52.53
76808;BME280;65758;45.458;11.062;2024-01-10T11:33:30;102263.65;;;6.34;51.71
76808;BME280;65758;45.458;11.062;2024-01-10T11:36:13;102258.95;;;6.37;51.65
76808;BME280;65758;45.458;11.062;2024-01-10T11:41:34;102253.96;;;6.43;50.60
76808;BME280;65758;45.458;11.062;2024-01-10T11:46:41;102243.94;;;6.45;50.39
76808;BME280;65758;45.458;11.062;2024-01-10T11:49:10;102239.26;;;6.44;50.49
76808;BME280;65758;45.458;11.062;2024-01-10T11:51:41;102237.71;;;6.43;50.26
76808;BME280;65758;45.458;11.062;2024-01-10T11:54:35;102236.45;;;6.43;49.66
76808;BME280;65758;45.458;11.062;2024-01-10T11:57:02;102237.27;;;6.42;50.14
76808;BME280;65758;45.458;11.062;2024-01-10T11:59:31;102236.89;;;6.42;49.95
76808;BME280;65758;45.458;11.062;2024-01-10T12:01:58;102238.42;;;6.41;49.94
76808;BME280;65758;45.458;11.062;2024-01-10T12:04:25;102239.64;;;6.42;49.98
76808;BME280;65758;45.458;11.062;2024-01-10T12:07:13;102235.42;;;6.42;49.80
76808;BME280;65758;45.458;11.062;2024-01-10T12:09:41;102236.11;;;6.44;50.09
76808;BME280;65758;45.458;11.062;2024-01-10T12:12:08;102239.85;;;6.50;50.41
76808;BME280;65758;45.458;11.062;2024-01-10T12:14:39;102233.50;;;6.53;50.19
76808;BME280;65758;45.458;11.062;2024-01-10T12:17:07;102231.14;;;6.58;50.05
76808;BME280;65758;45.458;11.062;2024-01-10T12:19:36;102232.94;;;6.62;49.49
76808;BME280;65758;45.458;11.062;2024-01-10T12:22:06;102228.83;;;6.63;48.86
76808;BME280;65758;45.458;11.062;2024-01-10T12:24:42;102223.86;;;6.65;49.34
76808;BME280;65758;45.458;11.062;2024-01-10T12:27:10;102224.10;;;6.68;49.23
76808;BME280;65758;45.458;11.062;2024-01-10T12:29:38;102220.93;;;6.70;49.09
76808;BME280;65758;45.458;11.062;2024-01-10T12:32:05;102218.59;;;6.73;49.13
76808;BME280;65758;45.458;11.062;2024-01-10T12:34:32;102218.98;;;6.75;48.99
76808;BME280;65758;45.458;11.062;2024-01-10T12:36:59;102210.73;;;6.76;49.27
76808;BME280;65758;45.458;11.062;2024-01-10T12:39:28;102209.04;;;6.76;49.40
76808;BME280;65758;45.458;11.062;2024-01-10T12:41:58;102206.13;;;6.78;48.95
76808;BME280;65758;45.458;11.062;2024-01-10T12:44:30;102201.11;;;6.79;49.50
76808;BME280;65758;45.458;11.062;2024-01-10T12:46:58;102196.78;;;6.81;49.05
76808;BME280;65758;45.458;11.062;2024-01-10T12:49:27;102196.09;;;6.80;49.09
76808;BME280;65758;45.458;11.062;2024-01-10T12:51:54;102197.24;;;6.80;48.90
76808;BME280;65758;45.458;11.062;2024-01-10T12:54:21;102196.95;;;6.81;49.14
76808;BME280;65758;45.458;11.062;2024-01-10T12:56:49;102195.08;;;6.83;49.04
76808;BME280;65758;45.458;11.062;2024-01-10T12:59:17;102195.77;;;6.85;48.76
76808;BME280;65758;45.458;11.062;2024-01-10T13:01:44;102190.90;;;6.87;48.79
76808;BME280;65758;45.458;11.062;2024-01-10T13:04:11;102187.79;;;6.88;49.34
76808;BME280;65758;45.458;11.062;2024-01-10T13:06:40;102186.08;;;6.91;49.13
76808;BME280;65758;45.458;11.062;2024-01-10T13:09:07;102183.95;;;6.92;48.99